sensor_id;sensor_type;location;lat;lon;timestamp;pressure;altitude;pressure_sealevel;temperature;humidity
51468;BME280;37545;45.302;-122.946;2022-10-31T00:00:33;101447.09;;;15.64;71.91
51468;BME280;37545;45.302;-122.946;2022-10-31T00:03:02;101436.63;;;15.61;73.24
51468;BME280;37545;45.302;-122.946;2022-10-31T00:05:30;101447.91;;;15.60;73.73
51468;BME280;37545;45.302;-122.946;2022-10-31T00:08:00;101441.78;;;15.58;73.95
51468;BME280;37545;45.302;-122.946;2022-10-31T00:10:29;101445.22;;;15.57;73.93
51468;BME280;37545;45.302;-122.946;2022-10-31T00:12:57;101437.41;;;15.57;74.15
51468;BME280;37545;45.302;-122.946;2022-10-31T00:15:26;101422.59;;;15.56;73.67
51468;BME280;37545;45.302;-122.946;2022-10-31T00:17:55;101422.59;;;15.56;74.06
51468;BME280;37545;45.302;-122.946;2022-10-31T00:20:23;101419.13;;;15.56;73.05
51468;BME280;37545;45.302;-122.946;2022-10-31T00:22:57;101407.66;;;15.47;73.00
51468;BME280;37545;45.302;-122.946;2022-10-31T00:25:29;101407.59;;;15.44;71.71
51468;BME280;37545;45.302;-122.946;2022-10-31T00:28:00;101398.03;;;15.45;72.81
51468;BME280;37545;45.302;-122.946;2022-10-31T00:30:35;101403.28;;;15.46;72.57
51468;BME280;37545;45.302;-122.946;2022-10-31T00:33:04;101397.22;;;15.47;72.14
51468;BME280;37545;45.302;-122.946;2022-10-31T00:35:33;101393.69;;;15.45;71.09
51468;BME280;37545;45.302;-122.946;2022-10-31T00:38:01;101395.41;;;15.43;72.04
51468;BME280;37545;45.302;-122.946;2022-10-31T00:40:34;101386.66;;;15.40;73.11
51468;BME280;37545;45.302;-122.946;2022-10-31T00:43:03;101381.44;;;15.40;73.40
51468;BME280;37545;45.302;-122.946;2022-10-31T00:45:31;101373.59;;;15.40;72.83
51468;BME280;37545;45.302;-122.946;2022-10-31T00:48:00;101362.19;;;15.33;72.75
51468;BME280;37545;45.302;-122.946;2022-10-31T00:50:38;101363.84;;;15.29;73.68
51468;BME280;37545;45.302;-122.946;2022-10-31T00:53:07;101355.91;;;15.23;73.54
51468;BME280;37545;45.302;-122.946;2022-10-31T00:55:37;101354.09;;;15.19;73.70
51468;BME280;37545;45.302;-122.946;2022-10-31T00:58:06;101361.81;;;15.15;73.88
51468;BME280;37545;45.302;-122.946;2022-10-31T01:00:37;101363.53;;;15.14;74.10
51468;BME280;37545;45.302;-122.946;2022-10-31T01:03:06;101356.56;;;15.13;74.08
51468;BME280;37545;45.302;-122.946;2022-10-31T01:05:34;101357.34;;;15.09;75.17
51468;BME280;37545;45.302;-122.946;2022-10-31T01:08:03;101355.53;;;15.05;75.19
51468;BME280;37545;45.302;-122.946;2022-10-31T01:10:31;101354.63;;;15.04;76.43
51468;BME280;37545;45.302;-122.946;2022-10-31T01:13:02;101357.22;;;15.03;76.66
51468;BME280;37545;45.302;-122.946;2022-10-31T01:15:30;101345.03;;;15.00;77.06
51468;BME280;37545;45.302;-122.946;2022-10-31T01:17:59;101349.28;;;14.97;77.55
51468;BME280;37545;45.302;-122.946;2022-10-31T01:20:27;101351.81;;;14.94;77.21
51468;BME280;37545;45.302;-122.946;2022-10-31T01:22:56;101343.00;;;14.87;78.92
51468;BME280;37545;45.302;-122.946;2022-10-31T01:25:25;101341.97;;;14.80;80.03
51468;BME280;37545;45.302;-122.946;2022-10-31T01:27:53;101343.63;;;14.77;80.97
51468;BME280;37545;45.302;-122.946;2022-10-31T01:30:24;101335.75;;;14.74;80.17
51468;BME280;37545;45.302;-122.946;2022-10-31T01:32:52;101336.53;;;14.70;80.89
51468;BME280;37545;45.302;-122.946;2022-10-31T01:35:28;101336.47;;;14.66;81.59
51468;BME280;37545;45.302;-122.946;2022-10-31T01:37:57;101338.22;;;14.68;81.21
51468;BME280;37545;45.302;-122.946;2022-10-31T01:40:29;101334.69;;;14.65;81.92
51468;BME280;37545;45.302;-122.946;2022-10-31T01:42:58;101332.09;;;14.64;82.34
51468;BME280;37545;45.302;-122.946;2022-10-31T01:45:28;101332.13;;;14.67;87.59
51468;BME280;37545;45.302;-122.946;2022-10-31T01:47:57;101332.13;;;14.67;88.88
51468;BME280;37545;45.302;-122.946;2022-10-31T01:50:30;101316.50;;;14.67;87.80
51468;BME280;37545;45.302;-122.946;2022-10-31T01:53:01;101312.13;;;14.64;86.04
51468;BME280;37545;45.302;-122.946;2022-10-31T01:55:34;101304.25;;;14.61;86.30
51468;BME280;37545;45.302;-122.946;2022-10-31T01:58:08;101304.16;;;14.57;86.53
51468;BME280;37545;45.302;-122.946;2022-10-31T02:00:40;101306.72;;;14.55;86.49
51468;BME280;37545;45.302;-122.946;2022-10-31T02:03:13;101312.84;;;14.59;86.97
51468;BME280;37545;45.302;-122.946;2022-10-31T02:05:42;101309.47;;;14.61;87.00
51468;BME280;37545;45.302;-122.946;2022-10-31T02:08:16;101316.44;;;14.64;88.79
51468;BME280;37545;45.302;-122.946;2022-10-31T02:10:45;101323.41;;;14.65;86.42
51468;BME280;37545;45.302;-122.946;2022-10-31T02:13:16;101317.38;;;14.66;85.60
51468;BME280;37545;45.302;-122.946;2022-10-31T02:15:49;101309.56;;;14.66;86.80
51468;BME280;37545;45.302;-122.946;2022-10-31T02:18:19;101299.03;;;14.63;90.21
51468;BME280;37545;45.302;-122.946;2022-10-31T02:20:55;101301.53;;;14.57;89.89
51468;BME280;37545;45.302;-122.946;2022-10-31T02:26:53;101291.66;;;14.43;89.15
51468;BME280;37545;45.302;-122.946;2022-10-31T02:29:52;101304.59;;;14.40;88.46
51468;BME280;37545;45.302;-122.946;2022-10-31T02:32:30;101302.94;;;14.44;89.32
51468;BME280;37545;45.302;-122.946;2022-10-31T02:35:08;101291.72;;;14.46;88.72
51468;BME280;37545;45.302;-122.946;2022-10-31T02:37:41;101283.91;;;14.46;90.64
51468;BME280;37545;45.302;-122.946;2022-10-31T02:40:17;101282.16;;;14.45;89.89
51468;BME280;37545;45.302;-122.946;2022-10-31T02:42:53;101289.00;;;14.42;89.63
51468;BME280;37545;45.302;-122.946;2022-10-31T02:45:29;101270.72;;;14.39;89.70
51468;BME280;37545;45.302;-122.946;2022-10-31T02:48:10;101274.16;;;14.36;89.73
51468;BME280;37545;45.302;-122.946;2022-10-31T02:50:43;101262.84;;;14.36;90.12
51468;BME280;37545;45.302;-122.946;2022-10-31T02:53:15;101251.53;;;14.35;90.66
51468;BME280;37545;45.302;-122.946;2022-10-31T02:55:58;101240.25;;;14.35;93.34
51468;BME280;37545;45.302;-122.946;2022-10-31T02:58:29;101240.22;;;14.33;94.94
51468;BME280;37545;45.302;-122.946;2022-10-31T03:01:22;101234.09;;;14.30;93.31
51468;BME280;37545;45.302;-122.946;2022-10-31T03:04:07;101236.69;;;14.31;92.19
51468;BME280;37545;45.302;-122.946;2022-10-31T03:06:43;101241.09;;;14.32;91.01
51468;BME280;37545;45.302;-122.946;2022-10-31T03:09:18;101255.03;;;14.36;90.57
51468;BME280;37545;45.302;-122.946;2022-10-31T03:11:56;101244.66;;;14.37;90.05
51468;BME280;37545;45.302;-122.946;2022-10-31T03:14:31;101241.94;;;14.33;89.95
51468;BME280;37545;45.302;-122.946;2022-10-31T03:17:06;101252.31;;;14.31;90.29
51468;BME280;37545;45.302;-122.946;2022-10-31T03:19:41;101254.09;;;14.34;90.56
51468;BME280;37545;45.302;-122.946;2022-10-31T03:22:16;101253.31;;;14.36;90.62
51468;BME280;37545;45.302;-122.946;2022-10-31T03:24:47;101238.59;;;14.38;90.20
51468;BME280;37545;45.302;-122.946;2022-10-31T03:27:19;101227.25;;;14.35;93.30
51468;BME280;37545;45.302;-122.946;2022-10-31T03:29:51;101234.97;;;14.30;93.38
51468;BME280;37545;45.302;-122.946;2022-10-31T03:32:22;101229.72;;;14.29;92.30
51468;BME280;37545;45.302;-122.946;2022-10-31T03:34:56;101222.78;;;14.29;90.78
51468;BME280;37545;45.302;-122.946;2022-10-31T03:37:27;101233.19;;;14.29;90.74
51468;BME280;37545;45.302;-122.946;2022-10-31T03:39:59;101234.03;;;14.28;90.38
51468;BME280;37545;45.302;-122.946;2022-10-31T03:42:31;101219.28;;;14.27;90.47
51468;BME280;37545;45.302;-122.946;2022-10-31T03:45:03;101213.16;;;14.25;89.78
51468;BME280;37545;45.302;-122.946;2022-10-31T03:47:34;101215.78;;;14.25;90.10
51468;BME280;37545;45.302;-122.946;2022-10-31T03:50:08;101216.59;;;14.24;89.68
51468;BME280;37545;45.302;-122.946;2022-10-31T03:52:41;101211.28;;;14.19;88.85
51468;BME280;37545;45.302;-122.946;2022-10-31T03:55:15;101214.69;;;14.17;88.35
51468;BME280;37545;45.302;-122.946;2022-10-31T03:57:51;101227.72;;;14.17;88.31
51468;BME280;37545;45.302;-122.946;2022-10-31T04:00:22;101229.50;;;14.18;88.25
51468;BME280;37545;45.302;-122.946;2022-10-31T04:02:55;101226.81;;;14.15;87.76
51468;BME280;37545;45.302;-122.946;2022-10-31T04:05:29;101218.94;;;14.12;87.93
51468;BME280;37545;45.302;-122.946;2022-10-31T04:08:00;101202.41;;;14.10;87.63
51468;BME280;37545;45.302;-122.946;2022-10-31T04:10:30;101211.97;;;14.11;87.41
51468;BME280;37545;45.302;-122.946;2022-10-31T04:13:04;101214.56;;;14.11;88.59
51468;BME280;37545;45.302;-122.946;2022-10-31T04:15:35;101219.88;;;14.15;89.19
51468;BME280;37545;45.302;-122.946;2022-10-31T04:18:05;101214.69;;;14.17;89.68
51468;BME280;37545;45.302;-122.946;2022-10-31T04:20:37;101205.22;;;14.19;88.46
51468;BME280;37545;45.302;-122.946;2022-10-31T04:23:14;101202.59;;;14.19;87.64
51468;BME280;37545;45.302;-122.946;2022-10-31T04:25:42;101195.66;;;14.18;87.72
51468;BME280;37545;45.302;-122.946;2022-10-31T04:28:10;101206.13;;;14.21;87.33
51468;BME280;37545;45.302;-122.946;2022-10-31T04:30:42;101202.66;;;14.22;87.40
51468;BME280;37545;45.302;-122.946;2022-10-31T04:33:11;101196.69;;;14.26;87.01
51468;BME280;37545;45.302;-122.946;2022-10-31T04:35:41;101197.59;;;14.28;86.67
51468;BME280;37545;45.302;-122.946;2022-10-31T04:38:09;101188.94;;;14.29;87.35
51468;BME280;37545;45.302;-122.946;2022-10-31T04:40:38;101192.41;;;14.28;85.83
51468;BME280;37545;45.302;-122.946;2022-10-31T04:43:06;101190.66;;;14.27;85.30
51468;BME280;37545;45.302;-122.946;2022-10-31T04:45:35;101191.44;;;14.23;84.50
51468;BME280;37545;45.302;-122.946;2022-10-31T04:48:04;101180.09;;;14.21;84.12
51468;BME280;37545;45.302;-122.946;2022-10-31T04:50:32;101168.81;;;14.22;84.41
51468;BME280;37545;45.302;-122.946;2022-10-31T04:53:02;101161.94;;;14.22;84.19
51468;BME280;37545;45.302;-122.946;2022-10-31T04:55:31;101168.00;;;14.23;84.21
51468;BME280;37545;45.302;-122.946;2022-10-31T04:58:01;101176.72;;;14.25;84.45
51468;BME280;37545;45.302;-122.946;2022-10-31T05:00:30;101178.47;;;14.26;84.21
51468;BME280;37545;45.302;-122.946;2022-10-31T05:02:58;101183.72;;;14.29;84.60
51468;BME280;37545;45.302;-122.946;2022-10-31T05:05:29;101187.25;;;14.31;84.09
51468;BME280;37545;45.302;-122.946;2022-10-31T05:07:58;101182.03;;;14.31;83.83
51468;BME280;37545;45.302;-122.946;2022-10-31T05:10:32;101176.78;;;14.28;83.46
51468;BME280;37545;45.302;-122.946;2022-10-31T05:13:02;101175.03;;;14.27;84.17
51468;BME280;37545;45.302;-122.946;2022-10-31T05:15:31;101175.88;;;14.26;84.41
51468;BME280;37545;45.302;-122.946;2022-10-31T05:18:00;101178.50;;;14.28;84.30
51468;BME280;37545;45.302;-122.946;2022-10-31T05:20:30;101168.97;;;14.28;84.68
51468;BME280;37545;45.302;-122.946;2022-10-31T05:22:59;101158.47;;;14.23;83.87
51468;BME280;37545;45.302;-122.946;2022-10-31T05:25:28;101154.94;;;14.21;84.03
51468;BME280;37545;45.302;-122.946;2022-10-31T05:27:58;101167.97;;;14.21;84.58
51468;BME280;37545;45.302;-122.946;2022-10-31T05:30:28;101162.78;;;14.23;84.52
51468;BME280;37545;45.302;-122.946;2022-10-31T05:32:57;101156.72;;;14.24;84.15
51468;BME280;37545;45.302;-122.946;2022-10-31T05:35:28;101162.03;;;14.27;84.75
51468;BME280;37545;45.302;-122.946;2022-10-31T05:37:57;101162.91;;;14.29;84.65
51468;BME280;37545;45.302;-122.946;2022-10-31T05:40:27;101155.13;;;14.31;83.70
51468;BME280;37545;45.302;-122.946;2022-10-31T05:42:58;101157.69;;;14.29;83.94
51468;BME280;37545;45.302;-122.946;2022-10-31T05:45:27;101155.94;;;14.28;84.56
51468;BME280;37545;45.302;-122.946;2022-10-31T05:47:57;101148.91;;;14.24;84.73
51468;BME280;37545;45.302;-122.946;2022-10-31T05:50:27;101151.50;;;14.22;84.40
51468;BME280;37545;45.302;-122.946;2022-10-31T05:52:57;101154.13;;;14.24;84.45
51468;BME280;37545;45.302;-122.946;2022-10-31T05:55:26;101159.34;;;14.24;84.88
51468;BME280;37545;45.302;-122.946;2022-10-31T05:57:55;101159.34;;;14.24;84.29
51468;BME280;37545;45.302;-122.946;2022-10-31T06:00:26;101163.72;;;14.25;84.79
51468;BME280;37545;45.302;-122.946;2022-10-31T06:03:05;101160.25;;;14.26;85.04
51468;BME280;37545;45.302;-122.946;2022-10-31T06:05:34;101155.91;;;14.27;85.05
51468;BME280;37545;45.302;-122.946;2022-10-31T06:08:03;101150.63;;;14.22;84.94
51468;BME280;37545;45.302;-122.946;2022-10-31T06:10:31;101143.63;;;14.19;85.22
51468;BME280;37545;45.302;-122.946;2022-10-31T06:13:00;101147.09;;;14.20;85.49
51468;BME280;37545;45.302;-122.946;2022-10-31T06:15:30;101155.81;;;14.22;85.38
51468;BME280;37545;45.302;-122.946;2022-10-31T06:18:00;101136.78;;;14.23;84.93
51468;BME280;37545;45.302;-122.946;2022-10-31T06:20:28;101131.56;;;14.23;85.80
51468;BME280;37545;45.302;-122.946;2022-10-31T06:22:57;101131.63;;;14.26;89.87
51468;BME280;37545;45.302;-122.946;2022-10-31T06:25:26;101125.53;;;14.25;90.01
51468;BME280;37545;45.302;-122.946;2022-10-31T06:27:54;101115.13;;;14.25;89.52
51468;BME280;37545;45.302;-122.946;2022-10-31T06:30:23;101116.84;;;14.25;88.83
51468;BME280;37545;45.302;-122.946;2022-10-31T06:32:53;101115.09;;;14.24;89.84
51468;BME280;37545;45.302;-122.946;2022-10-31T06:35:22;101111.63;;;14.23;89.00
51468;BME280;37545;45.302;-122.946;2022-10-31T06:37:54;101115.09;;;14.24;88.87
51468;BME280;37545;45.302;-122.946;2022-10-31T06:40:22;101105.44;;;14.20;89.56
51468;BME280;37545;45.302;-122.946;2022-10-31T06:42:59;101107.19;;;14.18;89.68
51468;BME280;37545;45.302;-122.946;2022-10-31T06:45:29;101118.47;;;14.18;89.27
51468;BME280;37545;45.302;-122.946;2022-10-31T06:48:00;101109.69;;;14.15;89.16
51468;BME280;37545;45.302;-122.946;2022-10-31T06:50:28;101108.72;;;14.10;90.91
51468;BME280;37545;45.302;-122.946;2022-10-31T06:52:58;101106.91;;;14.06;89.57
51468;BME280;37545;45.302;-122.946;2022-10-31T06:55:28;101105.16;;;14.04;89.00
51468;BME280;37545;45.302;-122.946;2022-10-31T06:57:58;101090.47;;;14.07;88.06
51468;BME280;37545;45.302;-122.946;2022-10-31T07:00:28;101073.06;;;14.06;88.70
51468;BME280;37545;45.302;-122.946;2022-10-31T07:03:00;101064.41;;;14.05;86.95
51468;BME280;37545;45.302;-122.946;2022-10-31T07:05:29;101068.72;;;14.04;86.13
51468;BME280;37545;45.302;-122.946;2022-10-31T07:07:59;101074.00;;;14.08;85.63
51468;BME280;37545;45.302;-122.946;2022-10-31T07:10:29;101067.03;;;14.07;85.24
51468;BME280;37545;45.302;-122.946;2022-10-31T07:12:59;101062.66;;;14.06;84.80
51468;BME280;37545;45.302;-122.946;2022-10-31T07:15:29;101060.06;;;14.06;85.65
51468;BME280;37545;45.302;-122.946;2022-10-31T07:18:02;101055.72;;;14.06;84.66
51468;BME280;37545;45.302;-122.946;2022-10-31T07:20:31;101060.06;;;14.06;84.75
51468;BME280;37545;45.302;-122.946;2022-10-31T07:23:00;101062.72;;;14.07;85.03
51468;BME280;37545;45.302;-122.946;2022-10-31T07:25:31;101061.84;;;14.07;85.00
51468;BME280;37545;45.302;-122.946;2022-10-31T07:27:59;101060.94;;;14.04;84.52
51468;BME280;37545;45.302;-122.946;2022-10-31T07:30:28;101062.66;;;14.06;84.91
51468;BME280;37545;45.302;-122.946;2022-10-31T07:32:57;101066.19;;;14.08;85.57
51468;BME280;37545;45.302;-122.946;2022-10-31T07:35:28;101060.97;;;14.08;85.40
51468;BME280;37545;45.302;-122.946;2022-10-31T07:37:57;101061.91;;;14.10;84.94
51468;BME280;37545;45.302;-122.946;2022-10-31T07:40:25;101048.84;;;14.08;85.16
51468;BME280;37545;45.302;-122.946;2022-10-31T07:42:54;101047.09;;;14.09;84.90
51468;BME280;37545;45.302;-122.946;2022-10-31T07:45:22;101046.28;;;14.10;85.33
51468;BME280;37545;45.302;-122.946;2022-10-31T07:47:52;101049.75;;;14.10;85.81
51468;BME280;37545;45.302;-122.946;2022-10-31T07:50:22;101046.31;;;14.11;85.28
51468;BME280;37545;45.302;-122.946;2022-10-31T07:53:00;101025.47;;;14.10;85.13
51468;BME280;37545;45.302;-122.946;2022-10-31T07:55:29;101032.34;;;14.08;85.70
51468;BME280;37545;45.302;-122.946;2022-10-31T07:58:00;101047.09;;;14.09;86.24
51468;BME280;37545;45.302;-122.946;2022-10-31T08:00:30;101043.72;;;14.11;85.94
51468;BME280;37545;45.302;-122.946;2022-10-31T08:02:59;101036.75;;;14.10;85.96
51468;BME280;37545;45.302;-122.946;2022-10-31T08:05:28;101021.94;;;14.08;86.44
51468;BME280;37545;45.302;-122.946;2022-10-31T08:07:59;101015.00;;;14.07;86.42
51468;BME280;37545;45.302;-122.946;2022-10-31T08:10:29;101007.13;;;14.03;87.37
51468;BME280;37545;45.302;-122.946;2022-10-31T08:12:59;101018.41;;;14.04;87.72
51468;BME280;37545;45.302;-122.946;2022-10-31T08:15:28;101018.34;;;14.01;87.76
51468;BME280;37545;45.302;-122.946;2022-10-31T08:17:57;101011.41;;;14.01;87.67
51468;BME280;37545;45.302;-122.946;2022-10-31T08:20:30;101013.19;;;14.02;87.47
51468;BME280;37545;45.302;-122.946;2022-10-31T08:23:03;101037.50;;;14.04;86.94
51468;BME280;37545;45.302;-122.946;2022-10-31T08:25:33;101024.50;;;14.04;87.27
51468;BME280;37545;45.302;-122.946;2022-10-31T08:28:02;101020.13;;;14.03;86.91
51468;BME280;37545;45.302;-122.946;2022-10-31T08:30:37;101019.16;;;13.98;87.30
51468;BME280;37545;45.302;-122.946;2022-10-31T08:33:08;101010.47;;;13.96;87.11
51468;BME280;37545;45.302;-122.946;2022-10-31T08:35:37;101010.47;;;13.96;87.31
51468;BME280;37545;45.302;-122.946;2022-10-31T08:38:09;101003.50;;;13.95;87.68
51468;BME280;37545;45.302;-122.946;2022-10-31T08:40:38;100993.06;;;13.94;87.82
51468;BME280;37545;45.302;-122.946;2022-10-31T08:43:10;100990.41;;;13.91;87.88
51468;BME280;37545;45.302;-122.946;2022-10-31T08:45:39;100998.22;;;13.92;87.11
51468;BME280;37545;45.302;-122.946;2022-10-31T08:48:11;100980.03;;;13.92;87.38
51468;BME280;37545;45.302;-122.946;2022-10-31T08:50:40;100977.41;;;13.92;88.19
51468;BME280;37545;45.302;-122.946;2022-10-31T08:53:12;100991.31;;;13.93;87.86
51468;BME280;37545;45.302;-122.946;2022-10-31T08:55:42;100976.59;;;13.93;87.99
51468;BME280;37545;45.302;-122.946;2022-10-31T08:58:12;100979.19;;;13.93;88.10
51468;BME280;37545;45.302;-122.946;2022-10-31T09:00:43;100964.44;;;13.94;87.97
51468;BME280;37545;45.302;-122.946;2022-10-31T09:03:14;100953.09;;;13.90;87.94
51468;BME280;37545;45.302;-122.946;2022-10-31T09:05:43;100949.63;;;13.88;88.34
51468;BME280;37545;45.302;-122.946;2022-10-31T09:08:14;100960.03;;;13.90;88.24
51468;BME280;37545;45.302;-122.946;2022-10-31T09:10:52;100954.81;;;13.90;87.71
51468;BME280;37545;45.302;-122.946;2022-10-31T09:13:24;100958.34;;;13.92;88.28
51468;BME280;37545;45.302;-122.946;2022-10-31T09:15:53;100946.19;;;13.92;88.10
51468;BME280;37545;45.302;-122.946;2022-10-31T09:18:22;100952.31;;;13.94;88.03
51468;BME280;37545;45.302;-122.946;2022-10-31T09:20:51;100954.09;;;13.95;87.51
51468;BME280;37545;45.302;-122.946;2022-10-31T09:23:22;100945.41;;;13.96;87.79
51468;BME280;37545;45.302;-122.946;2022-10-31T09:25:52;100942.00;;;13.97;88.11
51468;BME280;37545;45.302;-122.946;2022-10-31T09:28:22;100931.56;;;13.97;87.49
51468;BME280;37545;45.302;-122.946;2022-10-31T09:30:52;100929.84;;;13.98;87.74
51468;BME280;37545;45.302;-122.946;2022-10-31T09:33:21;100920.25;;;13.95;87.20
51468;BME280;37545;45.302;-122.946;2022-10-31T09:35:50;100918.44;;;13.91;87.58
51468;BME280;37545;45.302;-122.946;2022-10-31T09:38:21;100920.19;;;13.91;87.15
51468;BME280;37545;45.302;-122.946;2022-10-31T09:40:55;100910.59;;;13.88;87.72
51468;BME280;37545;45.302;-122.946;2022-10-31T09:43:30;100917.50;;;13.86;87.87
51468;BME280;37545;45.302;-122.946;2022-10-31T09:46:07;100917.41;;;13.83;87.58
51468;BME280;37545;45.302;-122.946;2022-10-31T09:48:45;100917.41;;;13.83;87.26
51468;BME280;37545;45.302;-122.946;2022-10-31T09:51:18;100927.81;;;13.83;87.48
51468;BME280;37545;45.302;-122.946;2022-10-31T09:53:50;100928.72;;;13.85;87.33
51468;BME280;37545;45.302;-122.946;2022-10-31T09:56:21;100927.91;;;13.86;87.22
51468;BME280;37545;45.302;-122.946;2022-10-31T09:58:53;100938.25;;;13.85;86.63
51468;BME280;37545;45.302;-122.946;2022-10-31T10:01:32;100933.06;;;13.85;87.74
51468;BME280;37545;45.302;-122.946;2022-10-31T10:04:09;100926.16;;;13.87;87.29
51468;BME280;37545;45.302;-122.946;2022-10-31T10:06:46;100928.81;;;13.88;87.08
51468;BME280;37545;45.302;-122.946;2022-10-31T10:09:18;100915.81;;;13.90;86.76
51468;BME280;37545;45.302;-122.946;2022-10-31T10:11:55;100913.19;;;13.88;86.30
51468;BME280;37545;45.302;-122.946;2022-10-31T10:14:44;100911.47;;;13.89;85.55
51468;BME280;37545;45.302;-122.946;2022-10-31T10:17:26;100904.56;;;13.91;86.18
51468;BME280;37545;45.302;-122.946;2022-10-31T10:20:25;100906.28;;;13.89;85.48
51468;BME280;37545;45.302;-122.946;2022-10-31T10:26:10;100902.81;;;13.90;85.24
51468;BME280;37545;45.302;-122.946;2022-10-31T10:28:44;100889.72;;;13.85;85.36
51468;BME280;37545;45.302;-122.946;2022-10-31T10:31:15;100887.06;;;13.82;85.56
51468;BME280;37545;45.302;-122.946;2022-10-31T10:33:50;100885.31;;;13.81;86.08
51468;BME280;37545;45.302;-122.946;2022-10-31T10:36:27;100879.09;;;13.73;85.25
51468;BME280;37545;45.302;-122.946;2022-10-31T10:39:03;100869.53;;;13.72;86.49
51468;BME280;37545;45.302;-122.946;2022-10-31T10:41:36;100873.03;;;13.72;85.50
51468;BME280;37545;45.302;-122.946;2022-10-31T10:44:10;100862.47;;;13.63;85.17
51468;BME280;37545;45.302;-122.946;2022-10-31T10:46:42;100869.34;;;13.62;85.95
51468;BME280;37545;45.302;-122.946;2022-10-31T10:49:32;100855.44;;;13.60;86.06
51468;BME280;37545;45.302;-122.946;2022-10-31T10:52:08;100857.16;;;13.58;85.94
51468;BME280;37545;45.302;-122.946;2022-10-31T10:54:56;100860.63;;;13.59;86.50
51468;BME280;37545;45.302;-122.946;2022-10-31T10:57:49;100862.38;;;13.58;86.37
51468;BME280;37545;45.302;-122.946;2022-10-31T11:00:22;100857.16;;;13.58;86.02
51468;BME280;37545;45.302;-122.946;2022-10-31T11:02:51;100857.13;;;13.57;85.34
51468;BME280;37545;45.302;-122.946;2022-10-31T11:05:27;100855.44;;;13.59;85.49
51468;BME280;37545;45.302;-122.946;2022-10-31T11:07:56;100848.50;;;13.59;85.29
51468;BME280;37545;45.302;-122.946;2022-10-31T11:10:25;100845.00;;;13.57;85.41
51468;BME280;37545;45.302;-122.946;2022-10-31T11:13:04;100844.97;;;13.56;85.79
51468;BME280;37545;45.302;-122.946;2022-10-31T11:15:37;100835.47;;;13.56;85.15
51468;BME280;37545;45.302;-122.946;2022-10-31T11:18:20;100825.94;;;13.57;85.50
51468;BME280;37545;45.302;-122.946;2022-10-31T11:20:51;100823.38;;;13.58;85.56
51468;BME280;37545;45.302;-122.946;2022-10-31T11:23:20;100819.94;;;13.61;85.44
51468;BME280;37545;45.302;-122.946;2022-10-31T11:25:54;100820.81;;;13.61;85.52
51468;BME280;37545;45.302;-122.946;2022-10-31T11:28:25;100821.72;;;13.64;85.58
51468;BME280;37545;45.302;-122.946;2022-10-31T11:30:56;100821.72;;;13.64;85.55
51468;BME280;37545;45.302;-122.946;2022-10-31T11:33:29;100825.16;;;13.62;84.75
51468;BME280;37545;45.302;-122.946;2022-10-31T11:36:00;100814.75;;;13.62;85.67
51468;BME280;37545;45.302;-122.946;2022-10-31T11:38:34;100819.97;;;13.62;85.39
51468;BME280;37545;45.302;-122.946;2022-10-31T11:41:11;100815.66;;;13.63;85.82
51468;BME280;37545;45.302;-122.946;2022-10-31T11:43:47;100804.34;;;13.62;85.99
51468;BME280;37545;45.302;-122.946;2022-10-31T11:46:20;100805.25;;;13.63;86.70
51468;BME280;37545;45.302;-122.946;2022-10-31T11:48:53;100793.09;;;13.62;86.56
51468;BME280;37545;45.302;-122.946;2022-10-31T11:51:26;100787.03;;;13.61;86.47
51468;BME280;37545;45.302;-122.946;2022-10-31T11:53:58;100785.25;;;13.60;86.59
51468;BME280;37545;45.302;-122.946;2022-10-31T11:56:37;100795.69;;;13.62;86.57
51468;BME280;37545;45.302;-122.946;2022-10-31T11:59:21;100792.19;;;13.58;86.28
51468;BME280;37545;45.302;-122.946;2022-10-31T12:01:54;100781.78;;;13.60;86.66
51468;BME280;37545;45.302;-122.946;2022-10-31T12:04:33;100772.22;;;13.57;86.21
51468;BME280;37545;45.302;-122.946;2022-10-31T12:07:03;100773.13;;;13.59;86.44
51468;BME280;37545;45.302;-122.946;2022-10-31T12:09:35;100774.84;;;13.60;86.25
51468;BME280;37545;45.302;-122.946;2022-10-31T12:12:21;100780.97;;;13.62;86.08
51468;BME280;37545;45.302;-122.946;2022-10-31T12:15:02;100775.75;;;13.61;86.26
51468;BME280;37545;45.302;-122.946;2022-10-31T12:17:39;100771.38;;;13.58;86.31
51468;BME280;37545;45.302;-122.946;2022-10-31T12:20:19;100755.78;;;13.58;86.57
51468;BME280;37545;45.302;-122.946;2022-10-31T12:22:56;100763.63;;;13.61;87.06
51468;BME280;37545;45.302;-122.946;2022-10-31T12:25:37;100776.63;;;13.61;86.75
51468;BME280;37545;45.302;-122.946;2022-10-31T12:28:35;100757.56;;;13.62;86.49
51468;BME280;37545;45.302;-122.946;2022-10-31T12:31:23;100756.72;;;13.65;86.69
51468;BME280;37545;45.302;-122.946;2022-10-31T12:34:14;100761.06;;;13.65;87.17
51468;BME280;37545;45.302;-122.946;2022-10-31T12:36:55;100754.16;;;13.67;86.39
51468;BME280;37545;45.302;-122.946;2022-10-31T12:39:36;100757.66;;;13.69;86.37
51468;BME280;37545;45.302;-122.946;2022-10-31T12:42:16;100755.09;;;13.70;86.45
51468;BME280;37545;45.302;-122.946;2022-10-31T12:45:05;100754.22;;;13.70;86.18
51468;BME280;37545;45.302;-122.946;2022-10-31T12:48:00;100759.44;;;13.71;86.50
51468;BME280;37545;45.302;-122.946;2022-10-31T12:50:42;100748.25;;;13.75;86.45
51468;BME280;37545;45.302;-122.946;2022-10-31T12:53:28;100755.19;;;13.76;86.13